Time;durP1;ratioP1;P1;durP2;ratioP2;P2;SDS_P1;SDS_P2;PMS_P1;PMS_P2;Temp;Humidity;BMP_temperature;BMP_pressure;BME280_temperature;BME280_humidity;BME280_pressure;Samples;Min_cycle;Max_cycle;Signal;HPM_P1;HPM_P2
2023/01/02 00:01:17;;;;;;;6.83;3.10;;;14.00;99.90;;;;;;10469927;28;20284;-69
2023/01/02 00:06:17;;;;;;;6.63;3.17;;;13.90;99.90;;;;;;10476756;28;20229;-69
2023/01/02 00:11:18;;;;;;;6.23;3.00;;;13.80;99.90;;;;;;10466891;28;20221;-69
2023/01/02 00:16:18;;;;;;;7.13;2.90;;;13.80;99.90;;;;;;10472416;28;20230;-68
2023/01/02 00:21:19;;;;;;;6.97;3.00;;;13.70;99.90;;;;;;10452283;28;20265;-69
2023/01/02 00:26:19;;;;;;;6.27;3.30;;;13.60;99.90;;;;;;10486125;28;20273;-70
2023/01/02 00:31:20;;;;;;;8.17;3.10;;;13.60;99.90;;;;;;10471155;28;20710;-69
2023/01/02 00:36:20;;;;;;;7.33;2.93;;;13.50;99.90;;;;;;10451762;28;20243;-69
2023/01/02 00:41:21;;;;;;;5.00;2.87;;;13.40;99.90;;;;;;10471017;28;20231;-69
2023/01/02 00:46:22;;;;;;;5.63;3.03;;;13.40;99.90;;;;;;10469693;28;20257;-69
2023/01/02 00:51:23;;;;;;;8.30;3.00;;;13.40;99.90;;;;;;10470098;28;20234;-68
2023/01/02 00:56:23;;;;;;;8.60;3.50;;;13.30;99.90;;;;;;10465486;28;20218;-69
2023/01/02 01:01:27;;;;;;;7.83;3.40;;;13.20;99.90;;;;;;10458531;28;20231;-69
2023/01/02 01:06:27;;;;;;;8.07;2.80;;;13.20;99.90;;;;;;10473094;28;20269;-70
2023/01/02 01:11:28;;;;;;;6.30;2.90;;;13.20;99.90;;;;;;10455749;28;20280;-70
2023/01/02 01:16:29;;;;;;;9.23;3.40;;;13.30;99.90;;;;;;10492218;28;20223;-69
2023/01/02 01:21:29;;;;;;;5.33;2.93;;;13.40;99.90;;;;;;10474324;28;20283;-69
2023/01/02 01:26:30;;;;;;;6.53;2.67;;;13.50;99.90;;;;;;10468458;28;20726;-69
2023/01/02 01:31:31;;;;;;;4.83;2.30;;;13.60;99.90;;;;;;10469163;28;20226;-69
2023/01/02 01:36:31;;;;;;;4.43;2.70;;;13.60;99.90;;;;;;10467805;28;20272;-68
2023/01/02 01:41:32;;;;;;;7.67;2.47;;;13.70;99.90;;;;;;10469350;28;20237;-69
2023/01/02 01:46:44;;;;;;;5.47;3.00;;;13.80;99.90;;;;;;10475097;28;20207;-68
2023/01/02 01:51:53;;;;;;;5.07;2.50;;;13.80;99.90;;;;;;10482290;28;20292;-69
2023/01/02 01:56:59;;;;;;;5.80;2.93;;;13.90;99.90;;;;;;10473032;28;20227;-69
2023/01/02 02:02:00;;;;;;;8.37;2.97;;;13.90;99.90;;;;;;10472648;28;20228;-69
2023/01/02 02:07:01;;;;;;;7.63;2.97;;;13.90;99.90;;;;;;10480189;28;20575;-69
2023/01/02 02:12:03;;;;;;;6.53;2.50;;;13.90;99.90;;;;;;10480487;28;20735;-69
2023/01/02 02:17:27;;;;;;;7.67;2.87;;;13.90;99.90;;;;;;10461989;28;20223;-69
2023/01/02 02:22:56;;;;;;;4.67;2.30;;;13.90;99.90;;;;;;10476331;28;20219;-69
2023/01/02 02:28:18;;;;;;;8.70;2.70;;;13.90;99.90;;;;;;10482360;28;20224;-69
2023/01/02 02:33:30;;;;;;;4.33;2.40;;;13.90;99.90;;;;;;10476083;28;20223;-68
2023/01/02 02:38:57;;;;;;;6.60;2.80;;;13.90;99.90;;;;;;10479139;28;20238;-69
2023/01/02 02:44:11;;;;;;;6.50;2.30;;;14.00;99.90;;;;;;10470890;28;20722;-69
2023/01/02 02:49:39;;;;;;;4.70;2.33;;;14.00;99.90;;;;;;10476523;28;20237;-68
2023/01/02 02:54:55;;;;;;;6.67;2.80;;;13.90;99.90;;;;;;10476116;28;20231;-68
2023/01/02 02:59:56;;;;;;;7.87;2.70;;;14.00;99.90;;;;;;10483774;28;20222;-69
2023/01/02 03:05:01;;;;;;;5.00;2.73;;;13.90;99.90;;;;;;10474807;28;20204;-70
2023/01/02 03:10:19;;;;;;;6.10;2.67;;;13.90;99.90;;;;;;10495441;28;20274;-69
2023/01/02 03:15:44;;;;;;;4.23;2.50;;;13.80;99.90;;;;;;10473042;28;20211;-69
2023/01/02 03:20:52;;;;;;;5.17;2.70;;;13.60;99.90;;;;;;10461631;28;20231;-69
2023/01/02 03:25:55;;;;;;;7.97;2.73;;;13.50;99.90;;;;;;10459169;28;20678;-69
2023/01/02 03:30:59;;;;;;;5.83;2.60;;;13.40;99.90;;;;;;10467111;28;20805;-70
2023/01/02 03:36:05;;;;;;;6.03;2.50;;;13.30;99.90;;;;;;10450849;28;20227;-68
2023/01/02 03:41:19;;;;;;;7.43;2.87;;;13.30;99.90;;;;;;10475061;28;20227;-68
2023/01/02 03:46:26;;;;;;;6.83;3.00;;;13.20;99.90;;;;;;10471322;28;20215;-69
2023/01/02 03:51:26;;;;;;;6.47;2.70;;;13.20;99.90;;;;;;10475961;28;20269;-69
2023/01/02 03:56:52;;;;;;;6.03;2.90;;;13.10;99.90;;;;;;10476827;28;20745;-69
2023/01/02 04:02:05;;;;;;;6.80;3.40;;;13.00;99.90;;;;;;10468132;28;20228;-69
2023/01/02 04:07:12;;;;;;;8.00;2.90;;;12.90;99.90;;;;;;10469049;28;20219;-69
2023/01/02 04:12:19;;;;;;;5.10;3.00;;;12.80;99.90;;;;;;10478631;28;20219;-69
2023/01/02 04:17:21;;;;;;;5.63;3.27;;;12.80;99.90;;;;;;10454371;28;20215;-69
2023/01/02 04:22:30;;;;;;;6.03;3.03;;;12.70;99.90;;;;;;10469902;28;20248;-69
2023/01/02 04:27:36;;;;;;;8.27;3.23;;;12.70;99.90;;;;;;10469891;28;20575;-68
2023/01/02 04:32:41;;;;;;;7.83;3.53;;;12.60;99.90;;;;;;10475224;28;20784;-68
2023/01/02 04:37:42;;;;;;;9.00;2.90;;;12.60;99.90;;;;;;10471613;28;20215;-69
2023/01/02 04:42:43;;;;;;;7.20;3.23;;;12.60;99.90;;;;;;10467523;28;20250;-69
2023/01/02 04:47:45;;;;;;;8.87;3.40;;;12.70;99.90;;;;;;10470365;28;20309;-69
2023/01/02 04:52:46;;;;;;;7.30;3.20;;;12.70;99.90;;;;;;10447086;28;20313;-69
2023/01/02 04:57:46;;;;;;;10.13;3.47;;;12.70;99.90;;;;;;10456261;28;20354;-69
2023/01/02 05:02:47;;;;;;;8.33;3.00;;;12.70;99.90;;;;;;10471669;28;20223;-69
2023/01/02 05:07:48;;;;;;;5.40;2.97;;;12.60;99.90;;;;;;10473215;28;20215;-70
2023/01/02 05:12:48;;;;;;;8.10;3.13;;;12.60;99.90;;;;;;10458922;28;20211;-70
2023/01/02 05:17:49;;;;;;;10.37;3.00;;;12.60;99.90;;;;;;10473290;28;20274;-70
2023/01/02 05:28:28;;;;;;;5.73;2.90;;;12.50;99.90;;;;;;10300995;28;20254;-69
2023/01/02 05:33:29;;;;;;;8.53;3.00;;;12.50;99.90;;;;;;10431828;28;20698;-70
2023/01/02 05:38:31;;;;;;;12.70;3.43;;;12.50;99.90;;;;;;10469478;28;20231;-69
2023/01/02 05:43:33;;;;;;;7.53;3.03;;;12.40;99.90;;;;;;10468192;28;20243;-69
2023/01/02 05:48:34;;;;;;;8.43;3.13;;;12.40;99.90;;;;;;10452325;28;21997;-69
2023/01/02 05:53:35;;;;;;;7.40;3.17;;;12.30;99.90;;;;;;10461040;28;20227;-69
2023/01/02 05:58:38;;;;;;;5.70;2.80;;;12.30;99.90;;;;;;10448900;28;20322;-69
2023/01/02 06:03:42;;;;;;;5.70;3.10;;;12.40;99.90;;;;;;10469572;28;20237;-69
2023/01/02 06:08:43;;;;;;;7.50;2.80;;;12.40;99.90;;;;;;10447606;28;20226;-69
2023/01/02 06:13:44;;;;;;;5.17;2.90;;;12.50;99.90;;;;;;10471400;28;20760;-68
2023/01/02 06:18:44;;;;;;;6.57;2.87;;;12.50;99.90;;;;;;10451721;28;20226;-69
2023/01/02 06:23:46;;;;;;;11.33;2.87;;;12.60;99.90;;;;;;10465430;28;20299;-69
2023/01/02 06:28:52;;;;;;;8.37;2.83;;;12.70;99.90;;;;;;10470785;28;20592;-68
2023/01/02 06:33:57;;;;;;;8.87;2.60;;;12.70;99.90;;;;;;10465889;28;20223;-70
2023/01/02 06:38:57;;;;;;;9.53;2.80;;;12.70;99.90;;;;;;10470299;28;20624;-70
2023/01/02 06:43:58;;;;;;;6.47;2.40;;;12.70;99.90;;;;;;10478787;28;20223;-69
2023/01/02 06:48:59;;;;;;;7.53;2.70;;;12.70;99.90;;;;;;10471126;28;20239;-69
2023/01/02 06:53:59;;;;;;;4.50;2.50;;;12.70;99.90;;;;;;10478646;28;20227;-68
2023/01/02 06:59:00;;;;;;;10.77;2.80;;;12.80;99.90;;;;;;10470685;28;20223;-69
2023/01/02 07:04:00;;;;;;;8.23;3.00;;;12.90;99.90;;;;;;10478735;28;20215;-67
2023/01/02 07:09:02;;;;;;;4.37;2.50;;;13.00;99.90;;;;;;10480167;28;20227;-68
2023/01/02 07:14:02;;;;;;;7.43;2.40;;;13.10;99.90;;;;;;10487155;28;20662;-69
2023/01/02 07:19:03;;;;;;;7.77;2.80;;;13.20;99.90;;;;;;10485350;28;20228;-69
2023/01/02 07:24:04;;;;;;;6.43;2.80;;;13.30;99.90;;;;;;10492477;28;20722;-69
2023/01/02 07:29:04;;;;;;;5.57;2.40;;;13.40;99.90;;;;;;10470275;28;20231;-70
2023/01/02 07:34:05;;;;;;;6.17;2.50;;;13.50;99.90;;;;;;10476053;28;20326;-69
2023/01/02 07:39:06;;;;;;;8.57;2.80;;;13.40;99.90;;;;;;10469663;28;20236;-69
2023/01/02 07:44:06;;;;;;;10.83;2.90;;;13.60;99.90;;;;;;10468276;28;20264;-69
2023/01/02 07:49:09;;;;;;;5.80;2.17;;;13.60;99.90;;;;;;10474680;28;20223;-70
2023/01/02 07:54:10;;;;;;;6.20;2.80;;;13.70;99.90;;;;;;10451580;28;20348;-70
2023/01/02 07:59:10;;;;;;;13.63;3.47;;;13.80;99.90;;;;;;10473420;28;20353;-69
2023/01/02 08:04:11;;;;;;;11.10;3.17;;;13.80;99.90;;;;;;10451948;28;20222;-69
2023/01/02 08:09:11;;;;;;;9.97;2.47;;;14.00;99.90;;;;;;10455782;28;20238;-68
2023/01/02 08:14:12;;;;;;;8.30;2.73;;;14.20;99.90;;;;;;10475722;28;20329;-69
2023/01/02 08:19:12;;;;;;;9.07;2.90;;;14.30;99.90;;;;;;10473086;28;20223;-70
2023/01/02 08:24:13;;;;;;;8.97;2.57;;;14.30;99.90;;;;;;10469056;28;20251;-69
2023/01/02 08:29:13;;;;;;;11.87;2.97;;;14.40;99.90;;;;;;10481985;28;20251;-69
2023/01/02 08:34:14;;;;;;;10.70;2.70;;;14.50;99.90;;;;;;10451014;28;20245;-70
2023/01/02 08:39:15;;;;;;;14.60;2.97;;;14.50;99.90;;;;;;10472167;28;20227;-70
2023/01/02 08:44:15;;;;;;;10.67;2.57;;;14.40;99.90;;;;;;10469343;28;20223;-69
2023/01/02 08:49:17;;;;;;;11.83;2.93;;;14.40;99.90;;;;;;10470709;28;20257;-68
2023/01/02 08:54:18;;;;;;;8.40;2.80;;;14.30;99.90;;;;;;10466052;28;20579;-68
2023/01/02 08:59:22;;;;;;;7.37;2.73;;;14.30;99.90;;;;;;10449921;28;20235;-70
2023/01/02 09:04:23;;;;;;;8.50;2.83;;;14.40;99.90;;;;;;10455002;28;20593;-69
2023/01/02 09:09:23;;;;;;;14.37;2.90;;;14.40;99.90;;;;;;10473588;28;20223;-69
2023/01/02 09:14:24;;;;;;;10.20;2.90;;;14.40;99.90;;;;;;10469738;28;20610;-68
2023/01/02 09:19:25;;;;;;;10.47;3.10;;;14.40;99.90;;;;;;10489724;28;20595;-70
2023/01/02 09:24:27;;;;;;;16.97;2.80;;;14.40;99.90;;;;;;10482073;28;20216;-69
2023/01/02 09:29:27;;;;;;;13.00;2.93;;;14.30;99.90;;;;;;10468795;28;20215;-69
2023/01/02 09:34:28;;;;;;;14.20;2.73;;;14.30;99.90;;;;;;10468365;28;20285;-69
2023/01/02 09:39:29;;;;;;;12.47;2.60;;;14.30;99.90;;;;;;10467004;28;20234;-69
2023/01/02 09:44:38;;;;;;;9.03;2.50;;;14.40;99.90;;;;;;10468614;28;20307;-68
2023/01/02 09:49:51;;;;;;;14.10;3.20;;;14.60;99.90;;;;;;10457360;28;20230;-70
2023/01/02 09:54:52;;;;;;;14.27;3.10;;;14.90;99.90;;;;;;10471562;28;20242;-69
2023/01/02 10:00:21;;;;;;;11.93;2.90;;;15.30;99.90;;;;;;10463757;28;20591;-70
2023/01/02 10:05:50;;;;;;;9.57;2.83;;;16.70;99.90;;;;;;10457552;28;20219;-71
2023/01/02 10:11:07;;;;;;;7.57;2.67;;;19.10;99.40;;;;;;10470456;28;20216;-70
2023/01/02 10:16:16;;;;;;;9.10;2.80;;;18.40;98.80;;;;;;10477983;28;20244;-68
2023/01/02 10:21:30;;;;;;;9.63;2.80;;;17.30;99.90;;;;;;10474379;28;20601;-69
2023/01/02 10:26:34;;;;;;;10.97;2.83;;;16.40;99.90;;;;;;10486482;28;20227;-68
2023/01/02 10:32:09;;;;;;;12.20;2.60;;;15.90;99.90;;;;;;10458290;28;20890;-69
2023/01/02 10:37:13;;;;;;;8.73;2.70;;;15.50;99.90;;;;;;10469288;28;20254;-69
2023/01/02 10:42:14;;;;;;;11.03;2.97;;;15.20;99.90;;;;;;10475462;28;20235;-69
2023/01/02 10:47:38;;;;;;;9.07;2.50;;;15.00;99.90;;;;;;10455645;28;20224;-70
2023/01/02 10:52:45;;;;;;;9.93;2.70;;;14.70;99.90;;;;;;10472941;28;20231;-69
2023/01/02 10:57:50;;;;;;;12.60;2.90;;;14.50;99.90;;;;;;10484717;28;20253;-70
2023/01/02 11:02:53;;;;;;;7.97;2.67;;;14.10;99.90;;;;;;10470025;28;20250;-69
2023/01/02 11:07:54;;;;;;;11.07;4.53;;;13.80;99.90;;;;;;10477160;28;20234;-69
2023/01/02 11:13:00;;;;;;;7.27;2.40;;;13.60;99.90;;;;;;10469445;28;20299;-68
2023/01/02 11:18:02;;;;;;;5.17;2.30;;;13.60;99.90;;;;;;10481552;28;20230;-68
2023/01/02 11:23:05;;;;;;;5.90;2.27;;;13.80;99.90;;;;;;10493894;28;20226;-69
2023/01/02 11:28:22;;;;;;;7.83;2.90;;;13.90;99.90;;;;;;10458105;28;20227;-69
2023/01/02 11:33:23;;;;;;;8.27;2.37;;;13.90;99.90;;;;;;10472066;28;20226;-69
2023/01/02 11:38:26;;;;;;;11.43;2.60;;;13.90;99.90;;;;;;10473652;28;20227;-70
2023/01/02 11:43:48;;;;;;;5.30;2.40;;;13.90;99.90;;;;;;10472898;28;20222;-69
2023/01/02 11:48:51;;;;;;;11.17;3.10;;;13.80;99.90;;;;;;10452290;28;20528;-69
2023/01/02 11:53:53;;;;;;;8.43;2.70;;;13.70;99.90;;;;;;10457949;28;20234;-70
2023/01/02 11:59:02;;;;;;;9.37;2.73;;;13.50;99.90;;;;;;10479240;28;20226;-70
2023/01/02 12:04:03;;;;;;;9.67;2.93;;;13.30;99.90;;;;;;10458060;28;20223;-69
2023/01/02 12:09:48;;;;;;;9.87;2.60;;;13.10;99.90;;;;;;10467928;28;20229;-69
2023/01/02 12:15:02;;;;;;;10.27;2.90;;;13.10;99.90;;;;;;10425055;28;20273;-70
2023/01/02 12:20:40;;;;;;;5.60;2.60;;;13.10;99.90;;;;;;10474091;28;20215;-70
2023/01/02 12:25:51;;;;;;;8.07;2.77;;;13.10;99.90;;;;;;10459225;28;20302;-70
2023/01/02 12:31:18;;;;;;;13.00;3.00;;;13.10;99.90;;;;;;10474327;28;20227;-68
2023/01/02 12:36:25;;;;;;;9.13;2.87;;;13.10;99.90;;;;;;10445939;28;20628;-69
2023/01/02 12:41:39;;;;;;;9.47;2.93;;;13.20;99.90;;;;;;10469762;28;20255;-69
2023/01/02 12:46:54;;;;;;;8.43;3.13;;;13.20;99.90;;;;;;10470202;28;20234;-69
2023/01/02 12:52:18;;;;;;;9.87;3.17;;;13.10;99.90;;;;;;10465497;28;20296;-69
2023/01/02 12:57:31;;;;;;;9.17;2.73;;;13.10;99.90;;;;;;10475783;28;20230;-70
2023/01/02 13:03:09;;;;;;;9.23;3.10;;;13.00;99.90;;;;;;10468493;28;20277;-69
2023/01/02 13:08:27;;;;;;;8.57;3.47;;;12.90;99.90;;;;;;10474014;28;20242;-69
2023/01/02 13:13:33;;;;;;;9.00;3.13;;;12.80;99.90;;;;;;10476520;28;20210;-70
2023/01/02 13:18:42;;;;;;;9.37;3.33;;;12.80;99.90;;;;;;10490584;28;20319;-69
2023/01/02 13:23:45;;;;;;;7.27;2.90;;;12.80;99.90;;;;;;10449180;28;20282;-69
2023/01/02 13:29:18;;;;;;;7.97;3.37;;;12.80;99.90;;;;;;10477383;28;20306;-69
2023/01/02 13:34:26;;;;;;;8.17;3.43;;;12.80;99.90;;;;;;10466547;28;20216;-69
2023/01/02 13:39:36;;;;;;;7.17;2.87;;;12.80;99.90;;;;;;10464672;28;20774;-69
2023/01/02 13:44:39;;;;;;;7.47;2.77;;;12.80;99.90;;;;;;10474306;28;20227;-69
2023/01/02 13:49:40;;;;;;;4.27;2.10;;;12.80;99.90;;;;;;10475731;28;20270;-69
2023/01/02 13:55:27;;;;;;;8.20;2.77;;;12.80;99.90;;;;;;10461068;28;20690;-69
2023/01/02 14:00:41;;;;;;;5.53;2.27;;;12.80;99.90;;;;;;10483635;28;20309;-68
2023/01/02 14:05:59;;;;;;;7.70;2.70;;;12.80;99.90;;;;;;10478164;28;20219;-70
2023/01/02 14:11:27;;;;;;;6.83;2.70;;;12.90;99.90;;;;;;10479437;28;20222;-68
2023/01/02 14:16:38;;;;;;;7.90;2.67;;;12.90;99.90;;;;;;10475429;28;20298;-69
2023/01/02 14:21:56;;;;;;;7.30;2.87;;;12.90;99.90;;;;;;10481135;28;20224;-70
2023/01/02 14:27:14;;;;;;;7.90;2.80;;;12.80;99.90;;;;;;10478048;28;20222;-71
2023/01/02 14:32:23;;;;;;;8.27;2.57;;;12.90;99.90;;;;;;10471748;28;20219;-69
2023/01/02 14:37:38;;;;;;;6.67;2.50;;;12.90;99.90;;;;;;10456659;28;20263;-69
2023/01/02 14:48:11;;;;;;;7.83;2.83;;;12.90;99.90;;;;;;10478271;28;20667;-70
2023/01/02 14:53:23;;;;;;;7.73;3.30;;;12.90;99.90;;;;;;10453438;28;20223;-69
2023/01/02 14:58:31;;;;;;;9.10;3.33;;;12.90;99.90;;;;;;10456743;28;20306;-68
2023/01/02 15:03:59;;;;;;;6.60;3.37;;;12.90;99.90;;;;;;10456284;28;20219;-69
2023/01/02 15:09:08;;;;;;;8.60;2.97;;;12.90;99.90;;;;;;10470091;28;20258;-69
2023/01/02 15:14:13;;;;;;;8.60;3.13;;;12.90;99.90;;;;;;10477962;28;20302;-69
2023/01/02 15:19:21;;;;;;;10.27;3.07;;;12.90;99.90;;;;;;10471653;28;20277;-69
2023/01/02 15:24:25;;;;;;;8.13;3.57;;;12.80;99.90;;;;;;10477207;28;20208;-70
2023/01/02 15:29:27;;;;;;;10.90;3.30;;;12.80;99.90;;;;;;10473355;28;20572;-69
2023/01/02 15:34:30;;;;;;;8.70;3.53;;;12.60;99.90;;;;;;10473016;28;20575;-69
2023/01/02 15:39:39;;;;;;;11.97;3.87;;;12.40;99.90;;;;;;10454082;28;20239;-68
2023/01/02 15:50:04;;;;;;;2.17;1.40;;;11.90;99.90;;;;;;10467834;28;20224;-70
2023/01/02 15:55:12;;;;;;;2.13;0.97;;;11.60;99.90;;;;;;10460080;28;20231;-70
2023/01/02 16:00:36;;;;;;;1.33;0.80;;;11.20;99.90;;;;;;10472271;28;20210;-69
2023/01/02 16:05:50;;;;;;;2.00;0.70;;;11.00;99.90;;;;;;10461688;28;20219;-69
2023/01/02 16:10:59;;;;;;;2.07;0.80;;;10.80;99.90;;;;;;10479329;28;20281;-70
2023/01/02 16:16:01;;;;;;;2.83;0.97;;;10.70;99.90;;;;;;10467004;28;20220;-70
2023/01/02 16:21:01;;;;;;;0.83;0.83;;;10.60;99.90;;;;;;10474359;28;20223;-69
2023/01/02 16:26:03;;;;;;;3.80;1.50;;;10.60;99.90;;;;;;10475041;28;20219;-70
2023/01/02 16:31:15;;;;;;;3.33;1.63;;;10.60;99.90;;;;;;10449588;28;20216;-69
2023/01/02 16:36:16;;;;;;;1.97;1.43;;;10.50;99.90;;;;;;10471967;28;20218;-70
2023/01/02 16:41:33;;;;;;;3.97;2.10;;;10.50;99.90;;;;;;10476140;28;20285;-69
2023/01/02 16:46:34;;;;;;;3.20;1.80;;;10.50;99.90;;;;;;10470466;28;20276;-70
2023/01/02 16:51:35;;;;;;;2.90;1.40;;;10.50;99.90;;;;;;10473970;28;20353;-69
2023/01/02 16:56:35;;;;;;;3.97;1.47;;;10.40;99.90;;;;;;10468720;28;20223;-69
2023/01/02 17:01:36;;;;;;;4.60;2.70;;;10.40;99.90;;;;;;10453124;28;20267;-69
2023/01/02 17:06:37;;;;;;;4.20;1.73;;;10.40;99.90;;;;;;10469009;28;20224;-69
2023/01/02 17:11:58;;;;;;;6.17;2.00;;;10.30;99.90;;;;;;10453397;28;20578;-69
2023/01/02 17:16:58;;;;;;;3.13;2.03;;;10.30;99.90;;;;;;10473447;28;20294;-69
2023/01/02 17:21:59;;;;;;;3.67;1.90;;;10.20;99.90;;;;;;10475720;28;20359;-70
2023/01/02 17:26:59;;;;;;;3.03;2.10;;;10.20;99.90;;;;;;10480025;28;20313;-70
2023/01/02 17:32:00;;;;;;;4.03;2.07;;;10.20;99.90;;;;;;10463300;28;20267;-70
2023/01/02 17:37:00;;;;;;;6.47;2.27;;;10.10;99.90;;;;;;10464207;28;20219;-71
2023/01/02 17:42:01;;;;;;;2.83;2.00;;;10.10;99.90;;;;;;10472279;28;20231;-69
2023/01/02 17:47:01;;;;;;;5.57;2.60;;;10.10;99.90;;;;;;10463393;28;20307;-70
2023/01/02 17:52:02;;;;;;;2.63;1.53;;;10.10;99.90;;;;;;10471564;28;20234;-69
2023/01/02 17:57:03;;;;;;;2.97;1.90;;;10.10;99.90;;;;;;10449849;28;20211;-69
2023/01/02 18:02:03;;;;;;;2.07;1.40;;;10.20;99.90;;;;;;10464102;28;20222;-69
2023/01/02 18:07:04;;;;;;;3.27;1.43;;;10.10;99.90;;;;;;10446628;28;20664;-69
2023/01/02 18:12:05;;;;;;;4.43;1.80;;;10.10;99.90;;;;;;10470955;28;20780;-68
2023/01/02 18:17:16;;;;;;;2.17;1.30;;;10.00;99.90;;;;;;10456412;28;20706;-70
2023/01/02 18:22:19;;;;;;;2.53;1.60;;;9.90;99.90;;;;;;10468655;28;20317;-70
2023/01/02 18:27:26;;;;;;;3.33;2.00;;;9.90;99.90;;;;;;10466893;28;20270;-70
2023/01/02 18:32:31;;;;;;;2.87;1.70;;;10.00;99.90;;;;;;10482067;28;20265;-70
2023/01/02 18:37:33;;;;;;;3.67;1.70;;;10.00;99.90;;;;;;10457507;28;20626;-70
2023/01/02 18:42:35;;;;;;;2.00;1.80;;;10.00;99.90;;;;;;10458161;28;20599;-70
2023/01/02 18:47:36;;;;;;;2.13;1.47;;;10.00;99.90;;;;;;10474861;28;20216;-69
2023/01/02 18:52:41;;;;;;;3.63;1.27;;;9.80;99.90;;;;;;10476154;28;20280;-69
2023/01/02 18:57:54;;;;;;;4.17;1.60;;;9.70;99.90;;;;;;10455117;28;20222;-69
2023/01/02 19:02:57;;;;;;;1.70;1.60;;;9.60;99.90;;;;;;10477754;28;20230;-69
2023/01/02 19:08:07;;;;;;;2.47;1.53;;;9.50;99.90;;;;;;10478195;28;20220;-69
2023/01/02 19:13:45;;;;;;;1.73;1.27;;;9.40;99.90;;;;;;10471083;28;20255;-69
2023/01/02 19:18:55;;;;;;;1.60;1.50;;;9.40;99.90;;;;;;10469410;28;20574;-69
2023/01/02 19:24:03;;;;;;;1.40;1.23;;;9.30;99.90;;;;;;10469828;28;20661;-70
2023/01/02 19:29:10;;;;;;;2.00;1.53;;;9.20;99.90;;;;;;10475320;28;20214;-69
2023/01/02 19:34:38;;;;;;;4.83;1.90;;;9.10;99.90;;;;;;10478825;28;20230;-70
2023/01/02 19:39:58;;;;;;;2.60;1.40;;;9.00;99.90;;;;;;10450592;28;20258;-69
2023/01/02 19:45:03;;;;;;;2.20;1.47;;;8.90;99.90;;;;;;10477280;28;20231;-69
2023/01/02 19:50:07;;;;;;;1.40;1.30;;;8.90;99.90;;;;;;10460809;28;20230;-69
2023/01/02 19:55:10;;;;;;;2.97;1.50;;;8.90;99.90;;;;;;10474895;28;20581;-69
2023/01/02 20:00:12;;;;;;;2.90;1.50;;;8.80;99.90;;;;;;10483609;28;20193;-69
2023/01/02 20:05:15;;;;;;;1.80;1.47;;;8.80;99.90;;;;;;10474625;28;20194;-69
2023/01/02 20:10:16;;;;;;;3.77;2.70;;;9.00;99.90;;;;;;10475388;28;20192;-68
2023/01/02 20:15:24;;;;;;;2.80;2.33;;;9.10;99.90;;;;;;10470128;28;20241;-69
2023/01/02 20:20:25;;;;;;;3.57;2.20;;;9.20;99.90;;;;;;10472536;28;20239;-69
2023/01/02 20:25:26;;;;;;;2.10;1.90;;;9.30;99.90;;;;;;10459963;28;20218;-70
2023/01/02 20:30:26;;;;;;;2.10;1.80;;;9.30;99.90;;;;;;10479863;28;20239;-70
2023/01/02 20:35:27;;;;;;;3.10;2.33;;;9.20;99.90;;;;;;10476865;28;20213;-70
2023/01/02 20:40:28;;;;;;;2.60;2.10;;;9.20;99.90;;;;;;10452816;28;20227;-70
2023/01/02 20:45:28;;;;;;;1.97;1.83;;;9.20;99.90;;;;;;10452067;28;20580;-69
2023/01/02 20:50:29;;;;;;;1.87;1.73;;;9.30;99.90;;;;;;10465574;28;20224;-70
2023/01/02 20:55:29;;;;;;;2.40;1.80;;;9.30;99.90;;;;;;10469410;28;20325;-70
2023/01/02 21:00:30;;;;;;;1.67;1.30;;;9.40;99.90;;;;;;10469187;28;20221;-69
2023/01/02 21:05:31;;;;;;;2.33;1.60;;;9.50;99.90;;;;;;10469159;28;20717;-69
2023/01/02 21:10:32;;;;;;;1.40;1.30;;;9.50;99.90;;;;;;10473024;28;20223;-69
2023/01/02 21:15:48;;;;;;;1.40;1.30;;;9.60;99.90;;;;;;10469558;28;20581;-68
2023/01/02 21:20:52;;;;;;;2.67;1.70;;;9.60;99.90;;;;;;10452427;28;20306;-70
2023/01/02 21:25:53;;;;;;;1.07;1.07;;;9.70;99.90;;;;;;10485628;28;20226;-69
2023/01/02 21:30:54;;;;;;;2.27;1.33;;;9.70;99.90;;;;;;10464709;28;20224;-69
2023/01/02 21:35:57;;;;;;;1.40;1.30;;;9.70;99.90;;;;;;10472645;28;20214;-69
2023/01/02 21:42:14;;;;;;;5.13;1.80;;;9.70;99.90;;;;;;10465234;28;20290;-70
2023/01/02 21:46:22;;;;;;;1.70;1.60;;;9.70;99.90;;;;;;10467476;28;20220;-68
2023/01/02 21:51:22;;;;;;;1.93;1.20;;;9.70;99.90;;;;;;10469856;28;20224;-69
2023/01/02 21:56:23;;;;;;;1.90;1.70;;;9.80;99.90;;;;;;10478749;28;20587;-69
2023/01/02 22:01:24;;;;;;;2.50;1.40;;;9.80;99.90;;;;;;10472624;28;20228;-69
2023/01/02 22:06:24;;;;;;;1.30;1.20;;;9.70;99.90;;;;;;10477309;28;20588;-69
2023/01/02 22:16:44;;;;;;;1.30;1.20;;;9.70;99.90;;;;;;10474160;28;20227;-69
2023/01/02 22:21:45;;;;;;;2.13;1.60;;;9.70;99.90;;;;;;10488881;28;20222;-69
2023/01/02 22:26:46;;;;;;;3.83;1.47;;;9.60;99.90;;;;;;10473219;28;20226;-69
2023/01/02 22:31:48;;;;;;;1.60;1.50;;;9.60;99.90;;;;;;10477300;28;20219;-70
2023/01/02 22:36:49;;;;;;;1.50;1.33;;;9.60;99.90;;;;;;10477484;28;20228;-70
2023/01/02 22:47:26;;;;;;;2.13;1.93;;;9.30;99.90;;;;;;10473755;28;20220;-69
2023/01/02 22:52:27;;;;;;;2.20;1.73;;;9.10;99.90;;;;;;10474841;28;20277;-69
2023/01/02 22:57:27;;;;;;;2.87;1.73;;;8.90;99.90;;;;;;10473843;28;20268;-69
2023/01/02 23:02:28;;;;;;;3.07;1.57;;;8.80;99.90;;;;;;10475284;28;20234;-69
2023/01/02 23:07:28;;;;;;;2.20;2.00;;;8.70;99.90;;;;;;10478016;28;20313;-68
2023/01/02 23:12:29;;;;;;;2.17;1.90;;;8.50;99.90;;;;;;10475750;28;20313;-70
2023/01/02 23:22:50;;;;;;;3.10;1.97;;;8.40;99.90;;;;;;10479398;28;20238;-69
2023/01/02 23:27:51;;;;;;;2.83;2.07;;;8.40;99.90;;;;;;10453400;28;20313;-69
2023/01/02 23:32:51;;;;;;;2.50;1.53;;;8.50;99.90;;;;;;10486170;28;20776;-69
2023/01/02 23:37:52;;;;;;;3.10;2.00;;;8.50;99.90;;;;;;10470818;28;20373;-69
2023/01/02 23:42:52;;;;;;;2.70;2.20;;;8.50;99.90;;;;;;10458271;28;20709;-69
2023/01/02 23:47:53;;;;;;;2.10;1.80;;;8.50;99.90;;;;;;10483820;28;20224;-69
2023/01/02 23:52:54;;;;;;;4.60;2.00;;;8.50;99.90;;;;;;10478435;28;20241;-70
2023/01/02 23:57:54;;;;;;;2.37;2.00;;;8.50;99.90;;;;;;10476135;28;20900;-70
